createdAt,value
2018-06-01T00:02:15.083Z,100943.41
2018-06-01T00:04:50.006Z,100938.19
2018-06-01T00:07:25.169Z,100935.02
2018-06-01T00:10:00.116Z,100931.29
2018-06-01T00:12:34.933Z,100930.08
2018-06-01T00:15:09.779Z,100930.85
2018-06-01T00:17:44.791Z,100927.44
2018-06-01T00:20:19.919Z,100929.54
2018-06-01T00:22:54.666Z,100928.37
2018-06-01T00:25:29.508Z,100924.94
2018-06-01T00:28:04.134Z,100933.77
2018-06-01T00:30:38.942Z,100935.77
2018-06-01T00:33:14.300Z,100940.13
2018-06-01T00:35:49.226Z,100939.24
2018-06-01T00:38:24.362Z,100927.20
2018-06-01T00:40:59.494Z,100929.73
2018-06-01T00:43:34.650Z,100938.23
2018-06-01T00:46:09.803Z,100935.31
2018-06-01T00:48:44.706Z,100925.95
2018-06-01T00:51:20.037Z,100930.92
2018-06-01T00:53:55.134Z,100930.89
2018-06-01T00:56:30.247Z,100935.87
2018-06-01T00:59:04.739Z,100937.05
2018-06-01T01:01:39.541Z,100936.29
2018-06-01T01:04:14.925Z,100930.56
2018-06-01T01:06:49.663Z,100934.16
2018-06-01T01:09:24.706Z,100930.25
2018-06-01T01:11:59.518Z,100935.19
2018-06-01T01:14:34.148Z,100936.47
2018-06-01T01:17:08.883Z,100934.83
2018-06-01T01:19:43.526Z,100940.41
2018-06-01T01:22:18.456Z,100943.20
2018-06-01T01:24:53.426Z,100946.38
2018-06-01T01:27:28.597Z,100944.83
2018-06-01T01:30:03.518Z,100952.26
2018-06-01T01:32:39.537Z,100947.81
2018-06-01T01:35:14.275Z,100959.10
2018-06-01T01:37:49.497Z,100960.72
2018-06-01T01:40:24.600Z,100953.62
2018-06-01T01:42:59.431Z,100949.80
2018-06-01T01:45:35.167Z,100948.70
2018-06-01T01:48:10.417Z,100950.91
2018-06-01T01:50:45.370Z,100948.94
2018-06-01T01:53:20.167Z,100950.77
2018-06-01T01:55:55.350Z,100947.36
2018-06-01T01:58:30.705Z,100954.09
2018-06-01T02:01:05.245Z,100945.80
2018-06-01T02:03:40.238Z,100956.16
2018-06-01T02:06:15.394Z,100955.97
2018-06-01T02:08:50.398Z,100961.70
2018-06-01T02:11:25.350Z,100964.07
2018-06-01T02:14:00.668Z,100962.80
2018-06-01T02:16:36.234Z,100960.93
2018-06-01T02:19:11.174Z,100956.30
2018-06-01T02:21:46.033Z,100955.01
2018-06-01T02:24:20.858Z,100956.56
2018-06-01T02:26:55.734Z,100955.98
2018-06-01T02:29:30.590Z,100965.46
2018-06-01T02:32:05.186Z,100962.77
2018-06-01T02:34:40.470Z,100962.88
2018-06-01T02:37:15.526Z,100971.27
2018-06-01T02:39:50.561Z,100974.42
2018-06-01T02:42:25.694Z,100969.81
2018-06-01T02:45:00.719Z,100964.53
2018-06-01T02:47:35.843Z,100958.81
2018-06-01T02:50:10.671Z,100961.47
2018-06-01T02:52:45.282Z,100957.80
2018-06-01T02:55:20.866Z,100966.77
2018-06-01T02:57:55.770Z,100963.50
2018-06-01T03:00:30.523Z,100964.54
2018-06-01T03:03:04.973Z,100958.63
2018-06-01T03:05:39.415Z,100954.55
2018-06-01T03:08:14.548Z,100961.91
2018-06-01T03:10:49.727Z,100959.59
2018-06-01T03:13:24.644Z,100964.80
2018-06-01T03:15:59.690Z,100964.12
2018-06-01T03:18:34.385Z,100965.08
2018-06-01T03:21:09.566Z,100963.63
2018-06-01T03:23:44.565Z,100962.34
2018-06-01T03:26:19.771Z,100963.77
2018-06-01T03:28:55.027Z,100955.59
2018-06-01T03:31:29.687Z,100962.08
2018-06-01T03:34:04.519Z,100956.52
2018-06-01T03:36:39.484Z,100954.30
2018-06-01T03:39:14.401Z,100964.31
2018-06-01T03:41:48.941Z,100960.62
2018-06-01T03:44:24.275Z,100951.41
2018-06-01T03:46:59.291Z,100948.91
2018-06-01T03:49:34.139Z,100950.64
2018-06-01T03:52:09.288Z,100947.10
2018-06-01T03:54:44.527Z,100942.41
2018-06-01T03:57:19.249Z,100946.88
2018-06-01T03:59:54.527Z,100949.53
2018-06-01T04:02:29.462Z,100954.76
2018-06-01T04:05:04.022Z,100958.56
2018-06-01T04:07:39.349Z,100955.66
2018-06-01T04:10:14.343Z,100953.80
2018-06-01T04:12:49.298Z,100947.28
2018-06-01T04:15:24.233Z,100946.64
2018-06-01T04:17:59.171Z,100938.30
2018-06-01T04:20:33.594Z,100944.00
2018-06-01T04:23:09.129Z,100952.50
2018-06-01T04:25:43.994Z,100949.13
2018-06-01T04:28:18.508Z,100948.91
2018-06-01T04:30:53.539Z,100943.72
2018-06-01T04:33:28.264Z,100945.77
2018-06-01T04:36:03.513Z,100947.70
2018-06-01T04:38:38.602Z,100951.52
2018-06-01T04:41:13.368Z,100948.84
2018-06-01T04:43:48.512Z,100938.58
2018-06-01T04:46:23.434Z,100945.67
2018-06-01T04:48:58.358Z,100943.66
2018-06-01T04:51:33.291Z,100945.55
2018-06-01T04:54:07.809Z,100951.77
2018-06-01T04:56:42.959Z,100955.04
2018-06-01T04:59:17.865Z,100960.63
2018-06-01T05:01:53.119Z,100970.18
2018-06-01T05:04:28.337Z,100969.41
2018-06-01T05:07:03.503Z,100972.36
2018-06-01T05:09:38.620Z,100978.41
2018-06-01T05:12:13.768Z,100973.38
2018-06-01T05:14:49.093Z,100970.50
2018-06-01T05:17:24.346Z,100967.22
2018-06-01T05:19:59.556Z,100973.66
2018-06-01T05:22:34.558Z,100970.26
2018-06-01T05:25:09.708Z,100971.65
2018-06-01T05:27:44.653Z,100971.77
2018-06-01T05:30:19.474Z,100967.77
2018-06-01T05:32:54.467Z,100958.18
2018-06-01T05:35:29.625Z,100970.20
2018-06-01T05:38:04.145Z,100965.36
2018-06-01T05:40:38.649Z,100962.78
2018-06-01T05:43:13.829Z,100961.63
2018-06-01T05:45:49.004Z,100968.17
2018-06-01T05:48:24.060Z,100964.22
2018-06-01T05:50:59.283Z,100969.03
2018-06-01T05:53:34.213Z,100972.87
2018-06-01T05:56:09.359Z,100964.99
2018-06-01T05:58:44.274Z,100970.00
2018-06-01T06:01:18.984Z,100968.62
2018-06-01T06:03:53.686Z,100972.27
2018-06-01T06:06:28.590Z,100970.78
2018-06-01T06:09:03.126Z,100961.00
2018-06-01T06:11:37.867Z,100970.06
2018-06-01T06:14:12.537Z,100966.86
2018-06-01T06:16:47.492Z,100965.89
2018-06-01T06:19:22.652Z,100967.17
2018-06-01T06:21:57.990Z,100972.52
2018-06-01T06:24:32.846Z,100969.86
2018-06-01T06:27:08.091Z,100971.28
2018-06-01T06:29:42.989Z,100964.38
2018-06-01T06:32:18.119Z,100970.98
2018-06-01T06:34:53.117Z,100967.20
2018-06-01T06:37:28.176Z,100978.16
2018-06-01T06:40:02.613Z,100973.16
2018-06-01T06:42:37.777Z,100964.27
2018-06-01T06:45:12.726Z,100959.89
2018-06-01T06:47:47.408Z,100960.91
2018-06-01T06:50:22.730Z,100958.20
2018-06-01T06:52:58.058Z,100954.97
2018-06-01T06:55:32.919Z,100951.28
2018-06-01T06:58:07.858Z,100952.68
2018-06-01T07:00:43.201Z,100958.03
2018-06-01T07:03:18.460Z,100962.48
2018-06-01T07:05:53.345Z,100959.70
2018-06-01T07:08:28.215Z,100963.77
2018-06-01T07:11:02.617Z,100962.44
2018-06-01T07:13:37.565Z,100956.98
2018-06-01T07:16:12.502Z,100965.07
2018-06-01T07:18:47.554Z,100966.59
2018-06-01T07:21:22.578Z,100968.07
2018-06-01T07:23:57.487Z,100962.59
2018-06-01T07:26:32.534Z,100959.02
2018-06-01T07:29:07.540Z,100959.49
2018-06-01T07:31:42.547Z,100959.23
2018-06-01T07:34:17.558Z,100958.15
2018-06-01T07:36:52.979Z,100960.30
2018-06-01T07:39:28.025Z,100967.20
2018-06-01T07:42:02.986Z,100973.55
2018-06-01T07:44:38.092Z,100980.10
2018-06-01T07:47:12.622Z,100975.21
2018-06-01T07:49:47.591Z,100970.11
2018-06-01T07:52:22.633Z,100972.30
2018-06-01T07:54:57.833Z,100983.77
2018-06-01T07:57:32.874Z,100984.95
2018-06-01T08:00:07.620Z,100992.39
2018-06-01T08:02:42.567Z,100982.95
2018-06-01T08:05:17.555Z,100988.14
2018-06-01T08:07:52.398Z,100986.39
2018-06-01T08:10:27.352Z,100980.04
2018-06-01T08:13:02.501Z,100982.23
2018-06-01T08:15:37.773Z,100987.95
2018-06-01T08:18:12.542Z,100987.28
2018-06-01T08:20:47.345Z,100988.08
2018-06-01T08:23:22.119Z,100983.91
2018-06-01T08:25:57.166Z,100988.92
2018-06-01T08:28:32.091Z,100985.45
2018-06-01T08:31:07.114Z,100999.20
2018-06-01T08:33:42.149Z,100995.41
2018-06-01T08:36:17.482Z,101000.13
2018-06-01T08:38:52.515Z,101008.44
2018-06-01T08:41:27.535Z,101005.75
2018-06-01T08:44:02.442Z,101014.93
2018-06-01T08:46:36.949Z,101015.92
2018-06-01T08:49:12.034Z,101017.89
2018-06-01T08:51:46.885Z,101021.86
2018-06-01T08:54:21.698Z,101014.66
2018-06-01T08:56:57.059Z,101010.29
2018-06-01T08:59:31.976Z,101008.38
2018-06-01T09:02:06.794Z,101017.30
2018-06-01T09:04:42.026Z,101014.09
2018-06-01T09:07:17.164Z,101014.73
2018-06-01T09:09:52.035Z,101016.52
2018-06-01T09:12:26.982Z,101011.70
2018-06-01T09:15:01.994Z,101010.30
2018-06-01T09:17:37.103Z,101007.22
2018-06-01T09:20:12.463Z,101018.23
2018-06-01T09:22:47.695Z,101022.45
2018-06-01T09:25:22.737Z,101022.56
2018-06-01T09:27:57.899Z,101018.75
2018-06-01T09:30:32.273Z,101022.78
2018-06-01T09:46:05.614Z,101018.19
2018-06-01T09:48:40.223Z,101012.09
2018-06-01T09:51:15.161Z,100996.95
2018-06-01T09:53:50.012Z,100999.56
2018-06-01T09:56:24.149Z,101000.48
2018-06-01T09:58:59.366Z,101000.83
2018-06-01T10:01:34.178Z,100999.27
2018-06-01T10:04:08.886Z,100998.84
2018-06-01T10:06:43.642Z,101000.45
2018-06-01T10:09:18.257Z,100997.44
2018-06-01T10:11:53.133Z,100997.88
2018-06-01T10:14:28.209Z,101001.70
2018-06-01T10:17:03.168Z,101009.90
2018-06-01T10:19:38.095Z,101006.72
2018-06-01T10:22:22.306Z,101013.84
2018-06-01T10:24:57.590Z,101013.31
2018-06-01T10:27:32.466Z,101012.14
2018-06-01T10:30:07.517Z,101011.25
2018-06-01T10:32:42.473Z,101006.45
2018-06-01T10:35:17.317Z,101005.19
2018-06-01T10:37:52.336Z,101006.05
2018-06-01T10:40:27.071Z,101008.10
2018-06-01T10:43:02.018Z,101009.48
2018-06-01T10:45:36.878Z,101004.11
2018-06-01T10:48:11.769Z,101009.41
2018-06-01T10:50:46.712Z,101009.34
2018-06-01T10:53:21.657Z,101001.38
2018-06-01T10:55:56.512Z,101011.05
2018-06-01T10:58:31.865Z,101009.45
2018-06-01T11:01:06.506Z,100993.83
2018-06-01T11:03:41.331Z,101002.28
2018-06-01T11:06:16.138Z,101004.78
2018-06-01T11:08:50.820Z,101002.61
2018-06-01T11:11:25.425Z,101006.21
2018-06-01T11:14:00.265Z,101007.70
2018-06-01T11:16:35.122Z,101013.73
2018-06-01T11:19:10.045Z,101019.37
2018-06-01T11:21:44.794Z,101029.53
2018-06-01T11:24:19.945Z,101028.63
2018-06-01T11:26:54.950Z,101029.30
2018-06-01T11:29:29.810Z,101021.58
2018-06-01T11:32:04.546Z,101017.42
2018-06-01T11:34:39.489Z,101020.88
2018-06-01T11:37:14.267Z,101024.20
2018-06-01T11:39:49.190Z,101030.23
2018-06-01T11:42:24.142Z,101029.45
2018-06-01T11:44:58.988Z,101025.05
2018-06-01T11:47:34.237Z,101031.23
2018-06-01T11:50:09.167Z,101031.39
2018-06-01T11:52:44.190Z,101036.30
2018-06-01T11:55:19.207Z,101045.92
2018-06-01T11:57:54.561Z,101048.89
2018-06-01T12:00:29.403Z,101052.08
2018-06-01T12:03:04.887Z,101048.91
2018-06-01T12:05:39.838Z,101058.91
2018-06-01T12:08:14.563Z,101049.30
2018-06-01T12:10:49.619Z,101050.45
2018-06-01T12:13:24.794Z,101052.24
2018-06-01T12:15:59.611Z,101039.70
2018-06-01T12:18:35.350Z,101043.77
2018-06-01T12:21:09.982Z,101037.08
2018-06-01T12:23:44.755Z,101036.22
2018-06-01T12:26:19.470Z,101023.72
2018-06-01T12:28:54.418Z,101034.97
2018-06-01T12:31:29.206Z,101044.58
2018-06-01T12:34:04.270Z,101050.31
2018-06-01T12:36:39.283Z,101048.34
2018-06-01T12:39:14.220Z,101053.50
2018-06-01T12:41:49.090Z,101044.37
2018-06-01T12:44:24.037Z,101040.91
2018-06-01T12:47:04.533Z,101041.61
2018-06-01T12:49:40.070Z,101032.77
2018-06-01T12:52:15.426Z,101039.50
2018-06-01T12:54:50.482Z,101029.55
2018-06-01T12:57:25.333Z,101034.63
2018-06-01T13:00:00.227Z,101025.87
2018-06-01T13:02:34.851Z,101021.74
2018-06-01T13:05:09.989Z,101022.38
2018-06-01T13:07:44.922Z,101014.65
2018-06-01T13:10:19.966Z,101001.86
2018-06-01T13:12:55.018Z,101002.55
2018-06-01T13:15:30.032Z,101001.97
2018-06-01T13:18:05.047Z,100988.55
2018-06-01T13:20:40.215Z,100983.86
2018-06-01T13:23:14.911Z,100973.17
2018-06-01T13:25:49.598Z,100973.23
2018-06-01T13:28:24.423Z,100976.67
2018-06-01T13:30:59.153Z,100983.05
2018-06-01T13:33:33.965Z,100988.64
2018-06-01T13:36:08.794Z,100989.93
2018-06-01T13:38:43.919Z,100996.21
2018-06-01T13:41:18.594Z,101006.97
2018-06-01T13:43:53.051Z,101011.81
2018-06-01T13:46:28.106Z,101007.57
2018-06-01T13:49:02.928Z,101013.72
2018-06-01T13:51:37.715Z,101010.73
2018-06-01T13:54:12.517Z,101005.48
2018-06-01T13:56:47.239Z,101003.66
2018-06-01T13:59:22.305Z,101001.73
2018-06-01T14:01:56.886Z,101002.84
2018-06-01T14:04:31.837Z,100997.95
2018-06-01T14:07:06.856Z,100996.23
2018-06-01T14:09:41.605Z,100988.27
2018-06-01T14:12:16.516Z,100986.72
2018-06-01T14:14:51.450Z,100981.77
2018-06-01T14:17:26.579Z,100977.46
2018-06-01T14:20:01.491Z,100976.07
2018-06-01T14:22:36.714Z,100973.53
2018-06-01T14:25:11.584Z,100970.83
2018-06-01T14:27:46.530Z,100969.08
2018-06-01T14:30:21.586Z,100968.40
2018-06-01T14:32:56.297Z,100960.80
2018-06-01T14:35:31.139Z,100960.56
2018-06-01T14:38:05.958Z,100961.95
2018-06-01T14:40:40.825Z,100954.20
2018-06-01T14:43:15.539Z,100945.13
2018-06-01T14:45:50.238Z,100941.67
2018-06-01T14:48:24.738Z,100944.39
2018-06-01T14:50:59.506Z,100948.02
2018-06-01T14:53:34.153Z,100955.25
2018-06-01T14:56:08.974Z,100949.16
2018-06-01T14:58:43.613Z,100959.74
2018-06-01T15:01:18.377Z,100959.32
2018-06-01T15:03:52.846Z,100958.80
2018-06-01T15:06:27.862Z,100958.94
2018-06-01T15:09:02.379Z,100963.88
2018-06-01T15:11:37.443Z,100955.65
2018-06-01T15:14:12.154Z,100949.66
2018-06-01T15:16:47.349Z,100944.06
2018-06-01T15:19:21.966Z,100945.11
2018-06-01T15:21:56.954Z,100944.16
2018-06-01T15:24:32.002Z,100943.76
2018-06-01T15:27:06.945Z,100938.88
2018-06-01T15:29:42.162Z,100943.27
2018-06-01T15:32:17.020Z,100942.32
2018-06-01T15:34:51.743Z,100943.56
2018-06-01T15:37:26.474Z,100943.34
2018-06-01T15:40:01.084Z,100944.94
2018-06-01T15:42:35.923Z,100944.53
2018-06-01T15:45:10.580Z,100939.36
2018-06-01T15:47:45.545Z,100944.98
2018-06-01T15:50:21.146Z,100949.25
2018-06-01T15:52:55.830Z,100958.19
2018-06-01T15:55:30.418Z,100959.78
2018-06-01T15:58:05.362Z,100966.56
2018-06-01T16:00:40.090Z,100967.45
2018-06-01T16:03:14.894Z,100969.27
2018-06-01T16:05:49.719Z,100973.72
2018-06-01T16:08:24.425Z,100970.23
2018-06-01T16:10:59.162Z,100966.72
2018-06-01T16:13:33.923Z,100972.76
2018-06-01T16:16:08.654Z,100977.55
2018-06-01T16:18:43.351Z,100975.22
2018-06-01T16:21:18.189Z,100974.14
2018-06-01T16:23:53.229Z,100978.19
2018-06-01T16:26:28.069Z,100971.05
2018-06-01T16:29:03.192Z,100970.95
2018-06-01T16:31:38.000Z,100965.87
2018-06-01T16:34:13.257Z,100961.50
2018-06-01T16:36:48.120Z,100964.69
2018-06-01T16:39:23.158Z,100965.52
2018-06-01T16:41:57.974Z,100971.36
2018-06-01T16:44:32.890Z,100970.52
2018-06-01T16:47:07.876Z,100970.52
2018-06-01T16:49:42.649Z,100977.14
2018-06-01T16:52:17.509Z,100974.56
2018-06-01T16:54:52.316Z,100972.86
2018-06-01T16:57:27.257Z,100972.63
2018-06-01T17:00:02.200Z,100969.89
2018-06-01T17:02:36.898Z,100970.42
2018-06-01T17:05:11.733Z,100978.59
2018-06-01T17:07:46.559Z,100970.61
2018-06-01T17:10:21.688Z,100974.13
2018-06-01T17:12:56.935Z,100967.64
2018-06-01T17:15:31.730Z,100970.53
2018-06-01T17:18:07.193Z,100974.03
2018-06-01T17:20:42.595Z,100971.80
2018-06-01T17:23:17.326Z,100970.17
2018-06-01T17:25:52.143Z,100964.33
2018-06-01T17:28:26.842Z,100966.64
2018-06-01T17:31:01.559Z,100968.45
2018-06-01T17:33:36.511Z,100965.22
2018-06-01T17:36:11.674Z,100967.56
2018-06-01T17:38:46.389Z,100973.72
2018-06-01T17:41:21.303Z,100969.89
2018-06-01T17:43:56.237Z,100965.00
2018-06-01T17:46:31.482Z,100964.98
2018-06-01T17:49:06.427Z,100963.05
2018-06-01T17:51:41.341Z,100954.02
2018-06-01T17:54:16.467Z,100960.39
2018-06-01T17:56:51.606Z,100961.89
2018-06-01T17:59:26.357Z,100958.67
2018-06-01T18:02:01.466Z,100952.30
2018-06-01T18:04:36.334Z,100954.02
2018-06-01T18:07:11.242Z,100953.31
2018-06-01T18:09:46.403Z,100955.16
2018-06-01T18:12:21.129Z,100953.84
2018-06-01T18:14:55.813Z,100954.26
2018-06-01T18:17:30.668Z,100945.47
2018-06-01T18:20:05.596Z,100954.70
2018-06-01T18:22:40.483Z,100960.03
2018-06-01T18:25:15.449Z,100965.10
2018-06-01T18:27:50.280Z,100970.07
2018-06-01T18:30:24.607Z,100954.55
2018-06-01T18:32:59.790Z,100965.09
2018-06-01T18:35:34.526Z,100949.89
2018-06-01T18:38:09.334Z,100950.73
2018-06-01T18:40:44.400Z,100959.56
2018-06-01T18:43:18.980Z,100955.08
2018-06-01T18:45:54.235Z,100966.72
2018-06-01T18:48:29.181Z,100965.55
2018-06-01T18:51:04.027Z,100962.02
2018-06-01T18:53:38.972Z,100964.70
2018-06-01T18:56:13.908Z,100963.73
2018-06-01T18:58:48.715Z,100965.11
2018-06-01T19:01:23.460Z,100960.98
2018-06-01T19:03:58.466Z,100966.06
2018-06-01T19:06:33.413Z,100972.78
2018-06-01T19:09:07.836Z,100979.87
2018-06-01T19:11:43.070Z,100984.86
2018-06-01T19:14:17.945Z,100984.35
2018-06-01T19:16:52.810Z,100986.09
2018-06-01T19:19:28.026Z,100992.14
2018-06-01T19:22:02.791Z,100994.55
2018-06-01T19:24:37.745Z,101004.86
2018-06-01T19:27:12.699Z,101006.35
2018-06-01T19:29:47.686Z,101009.38
2018-06-01T19:32:22.353Z,101015.84
2018-06-01T19:34:57.222Z,101014.22
2018-06-01T19:37:31.978Z,101016.54
2018-06-01T19:40:06.855Z,101013.75
2018-06-01T19:42:41.642Z,101014.14
2018-06-01T19:45:16.509Z,101019.66
2018-06-01T19:47:51.160Z,101029.79
2018-06-01T19:50:26.055Z,101026.63
2018-06-01T19:53:00.792Z,101031.20
2018-06-01T19:55:35.547Z,101023.66
2018-06-01T19:58:10.534Z,101024.83
2018-06-01T20:00:45.464Z,101021.73
2018-06-01T20:03:20.961Z,101027.81
2018-06-01T20:05:56.302Z,101023.47
2018-06-01T20:08:31.076Z,101019.86
2018-06-01T20:11:05.791Z,101014.34
2018-06-01T20:13:40.339Z,101014.73
2018-06-01T20:16:15.290Z,101014.64
2018-06-01T20:18:50.196Z,101019.36
2018-06-01T20:21:25.176Z,101019.84
2018-06-01T20:24:00.176Z,101019.63
2018-06-01T20:26:35.173Z,101014.73
2018-06-01T20:29:10.311Z,101013.67
2018-06-01T20:31:45.090Z,101016.87
2018-06-01T20:34:19.926Z,101018.86
2018-06-01T20:36:54.635Z,101025.81
2018-06-01T20:39:29.277Z,101038.00
2018-06-01T20:42:04.003Z,101036.45
2018-06-01T20:44:38.701Z,101045.67
2018-06-01T20:47:13.459Z,101046.45
2018-06-01T20:49:48.268Z,101058.29
2018-06-01T20:52:23.016Z,101058.92
2018-06-01T20:54:57.828Z,101061.19
2018-06-01T20:57:32.771Z,101066.12
2018-06-01T21:00:07.406Z,101061.92
2018-06-01T21:02:42.318Z,101069.58
2018-06-01T21:05:16.989Z,101071.03
2018-06-01T21:07:51.855Z,101073.31
2018-06-01T21:10:26.779Z,101075.50
2018-06-01T21:13:01.530Z,101064.87
2018-06-01T21:15:36.129Z,101065.44
2018-06-01T21:18:11.370Z,101062.81
2018-06-01T21:20:46.441Z,101064.33
2018-06-01T21:23:21.150Z,101062.38
2018-06-01T21:25:56.045Z,101069.47
2018-06-01T21:28:30.498Z,101061.31
2018-06-01T21:31:05.638Z,101054.55
2018-06-01T21:33:40.436Z,101054.06
2018-06-01T21:36:15.338Z,101056.60
2018-06-01T21:38:49.713Z,101059.91
2018-06-01T21:41:25.095Z,101064.21
2018-06-01T21:43:59.850Z,101077.37
2018-06-01T21:46:34.657Z,101079.88
2018-06-01T21:49:09.505Z,101087.89
2018-06-01T21:51:44.324Z,101079.98
2018-06-01T21:54:18.833Z,101081.48
2018-06-01T21:56:54.657Z,101084.17
2018-06-01T21:59:29.324Z,101082.07
2018-06-01T22:02:04.046Z,101069.01
2018-06-01T22:04:39.086Z,101078.10
2018-06-01T22:07:13.910Z,101076.83
2018-06-01T22:09:48.645Z,101072.06
2018-06-01T22:12:23.495Z,101072.23
2018-06-01T22:14:58.510Z,101067.13
2018-06-01T22:17:33.849Z,101077.31
2018-06-01T22:20:08.602Z,101089.78
2018-06-01T22:22:43.377Z,101091.71
2018-06-01T22:25:18.071Z,101092.97
2018-06-01T22:27:52.870Z,101095.99
2018-06-01T22:30:27.498Z,101105.32
2018-06-01T22:33:02.528Z,101102.10
2018-06-01T22:35:37.247Z,101098.63
2018-06-01T22:38:12.193Z,101096.97
2018-06-01T22:40:46.999Z,101095.13
2018-06-01T22:43:22.056Z,101098.75
2018-06-01T22:45:56.722Z,101093.08
2018-06-01T22:48:31.607Z,101082.40
2018-06-01T22:51:06.249Z,101085.87
2018-06-01T22:53:41.386Z,101087.72
2018-06-01T22:56:16.189Z,101090.41
2018-06-01T22:58:50.614Z,101095.05
2018-06-01T23:01:25.583Z,101098.56
2018-06-01T23:04:00.601Z,101097.16
2018-06-01T23:06:35.683Z,101093.45
2018-06-01T23:09:10.880Z,101098.80
2018-06-01T23:11:46.237Z,101096.92
2018-06-01T23:14:20.965Z,101093.84
2018-06-01T23:16:56.046Z,101094.52
2018-06-01T23:19:30.854Z,101094.73
2018-06-01T23:22:05.425Z,101100.41
2018-06-01T23:24:40.320Z,101096.83
2018-06-01T23:27:15.244Z,101100.00
2018-06-01T23:29:50.051Z,101097.11
2018-06-01T23:32:25.053Z,101088.45
2018-06-01T23:34:59.821Z,101087.61
2018-06-01T23:37:34.647Z,101079.27
2018-06-01T23:40:09.374Z,101083.66
2018-06-01T23:42:44.135Z,101076.73
2018-06-01T23:45:18.767Z,101073.19
2018-06-01T23:47:53.694Z,101079.94
2018-06-01T23:50:28.561Z,101078.13
2018-06-01T23:53:03.329Z,101073.34
2018-06-01T23:55:38.066Z,101071.78
2018-06-01T23:58:13.186Z,101072.13
